createdAt,value
2019-05-01T00:02:02.874Z,100330.88
2019-05-01T00:04:39.039Z,100334.40
2019-05-01T00:07:24.171Z,100331.79
2019-05-01T00:09:55.622Z,100326.39
2019-05-01T00:12:27.214Z,100327.70
2019-05-01T00:14:58.577Z,100314.59
2019-05-01T00:17:29.945Z,100314.19
2019-05-01T00:20:01.358Z,100312.16
2019-05-01T00:22:32.766Z,100296.23
2019-05-01T00:25:04.623Z,100296.23
2019-05-01T00:27:35.959Z,100289.28
2019-05-01T00:30:08.935Z,100290.34
2019-05-01T00:32:40.288Z,100284.34
2019-05-01T00:35:11.255Z,100286.12
2019-05-01T00:37:42.498Z,100289.03
2019-05-01T00:40:13.874Z,100282.52
2019-05-01T00:42:45.309Z,100270.97
2019-05-01T00:45:16.716Z,100273.21
2019-05-01T00:47:48.178Z,100264.27
2019-05-01T00:50:19.500Z,100265.51
2019-05-01T00:52:50.938Z,100264.88
2019-05-01T00:55:39.300Z,100263.69
2019-05-01T00:58:22.425Z,100259.30
2019-05-01T01:01:11.518Z,100252.34
2019-05-01T01:03:43.105Z,100243.31
2019-05-01T01:06:14.470Z,100244.52
2019-05-01T01:08:45.807Z,100243.19
2019-05-01T01:11:17.118Z,100240.58
2019-05-01T01:13:48.627Z,100242.59
2019-05-01T01:16:20.031Z,100235.49
2019-05-01T01:18:50.862Z,100234.98
2019-05-01T01:21:21.955Z,100233.61
2019-05-01T01:23:53.245Z,100238.61
2019-05-01T01:26:24.807Z,100232.38
2019-05-01T01:28:56.231Z,100223.58
2019-05-01T01:31:27.721Z,100223.67
2019-05-01T01:33:59.088Z,100220.82
2019-05-01T01:36:30.618Z,100213.42
2019-05-01T01:39:02.064Z,100204.75
2019-05-01T01:41:35.695Z,100209.94
2019-05-01T01:44:08.744Z,100209.33
2019-05-01T01:46:41.619Z,100206.84
2019-05-01T01:49:12.979Z,100203.27
2019-05-01T01:51:44.413Z,100202.66
2019-05-01T01:54:15.783Z,100203.17
2019-05-01T01:56:47.292Z,100193.08
2019-05-01T01:59:18.691Z,100187.75
2019-05-01T02:01:54.354Z,100190.50
2019-05-01T02:04:27.286Z,100187.92
2019-05-01T02:06:58.681Z,100173.14
2019-05-01T02:09:30.090Z,100180.30
2019-05-01T02:12:00.920Z,100180.93
2019-05-01T02:14:32.046Z,100169.44
2019-05-01T02:17:02.847Z,100170.89
2019-05-01T02:19:33.923Z,100171.50
2019-05-01T02:22:06.434Z,100165.74
2019-05-01T02:24:38.035Z,100169.77
2019-05-01T02:27:10.974Z,100171.02
2019-05-01T02:29:45.624Z,100171.38
2019-05-01T02:32:16.996Z,100175.50
2019-05-01T02:34:48.430Z,100175.38
2019-05-01T02:37:20.227Z,100172.75
2019-05-01T02:39:50.940Z,100177.11
2019-05-01T02:42:22.166Z,100171.16
2019-05-01T02:44:53.053Z,100166.05
2019-05-01T02:47:26.459Z,100168.47
2019-05-01T02:50:01.042Z,100160.34
2019-05-01T02:52:34.354Z,100162.08
2019-05-01T02:55:09.127Z,100163.20
2019-05-01T02:57:40.500Z,100158.73
2019-05-01T03:00:12.087Z,100147.62
2019-05-01T03:02:43.442Z,100157.80
2019-05-01T03:05:14.815Z,100154.22
2019-05-01T03:07:46.270Z,100151.31
2019-05-01T03:10:18.720Z,100146.05
2019-05-01T03:12:50.069Z,100150.11
2019-05-01T03:15:21.538Z,100148.84
2019-05-01T03:17:54.545Z,100142.68
2019-05-01T03:20:36.529Z,100150.28
2019-05-01T03:23:18.367Z,100153.02
2019-05-01T03:25:49.776Z,100155.08
2019-05-01T03:28:21.788Z,100150.95
2019-05-01T03:30:53.166Z,100150.34
2019-05-01T03:33:26.228Z,100151.65
2019-05-01T03:35:57.557Z,100147.86
2019-05-01T03:38:28.960Z,100143.38
2019-05-01T03:41:00.392Z,100139.67
2019-05-01T03:43:32.073Z,100140.92
2019-05-01T03:46:03.554Z,100135.58
2019-05-01T03:48:34.939Z,100140.31
2019-05-01T03:51:06.923Z,100138.55
2019-05-01T03:53:38.341Z,100134.79
2019-05-01T03:56:09.688Z,100136.39
2019-05-01T03:58:41.137Z,100140.72
2019-05-01T04:01:17.415Z,100151.88
2019-05-01T04:03:50.456Z,100151.88
2019-05-01T04:06:21.817Z,100159.42
2019-05-01T04:08:53.353Z,100155.34
2019-05-01T04:11:24.243Z,100156.58
2019-05-01T04:13:55.379Z,100157.94
2019-05-01T04:16:26.875Z,100158.59
2019-05-01T04:18:57.685Z,100153.23
2019-05-01T04:21:30.658Z,100141.35
2019-05-01T04:24:02.021Z,100119.77
2019-05-01T04:26:33.468Z,100128.39
2019-05-01T04:29:06.551Z,100125.33
2019-05-01T04:31:39.567Z,100127.84
2019-05-01T04:34:15.455Z,100120.55
2019-05-01T04:36:49.482Z,100121.70
2019-05-01T04:39:20.863Z,100125.91
2019-05-01T04:41:52.443Z,100119.94
2019-05-01T04:44:23.317Z,100119.53
2019-05-01T04:46:54.398Z,100114.47
2019-05-01T04:49:25.909Z,100112.09
2019-05-01T04:51:57.546Z,100109.28
2019-05-01T04:54:29.945Z,100103.12
2019-05-01T04:57:01.372Z,100104.49
2019-05-01T04:59:35.795Z,100105.34
2019-05-01T05:02:14.204Z,100102.09
2019-05-01T05:04:59.388Z,100091.62
2019-05-01T05:07:37.618Z,100091.73
2019-05-01T05:10:35.645Z,100092.88
2019-05-01T05:13:12.500Z,100098.77
2019-05-01T05:22:06.244Z,100096.58
2019-05-01T05:24:37.763Z,100094.80
2019-05-01T05:27:09.203Z,100091.11
2019-05-01T05:29:40.759Z,100084.30
2019-05-01T05:32:12.195Z,100083.03
2019-05-01T05:34:45.327Z,100078.08
2019-05-01T05:37:22.614Z,100076.82
2019-05-01T05:39:54.509Z,100075.88
2019-05-01T05:42:26.095Z,100072.72
2019-05-01T05:44:59.583Z,100070.42
2019-05-01T05:47:34.110Z,100064.63
2019-05-01T05:50:07.432Z,100064.20
2019-05-01T05:52:40.487Z,100059.03
2019-05-01T05:55:16.307Z,100059.97
2019-05-01T05:57:58.324Z,100051.22
2019-05-01T06:00:41.380Z,100049.30
2019-05-01T06:03:33.359Z,100053.08
2019-05-01T06:06:14.636Z,100046.98
2019-05-01T06:16:52.196Z,100047.27
2019-05-01T06:39:42.998Z,100041.16
2019-05-01T06:42:21.928Z,100039.45
2019-05-01T06:45:22.758Z,100046.86
2019-05-01T06:47:57.575Z,100056.95
2019-05-01T06:50:57.471Z,100061.75
2019-05-01T07:20:06.317Z,100077.45
2019-05-01T07:28:19.976Z,100076.86
2019-05-01T07:31:09.401Z,100082.22
2019-05-01T07:34:25.837Z,100090.53
2019-05-01T07:37:05.380Z,100087.59
2019-05-01T07:39:36.771Z,100080.44
2019-05-01T07:42:25.670Z,100071.34
2019-05-01T07:45:15.610Z,100076.68
2019-05-01T07:47:48.700Z,100078.36
2019-05-01T07:50:24.227Z,100071.03
2019-05-01T07:52:53.991Z,100070.95
2019-05-01T07:55:37.429Z,100064.41
2019-05-01T07:58:15.979Z,100066.53
2019-05-01T08:00:57.979Z,100061.58
2019-05-01T08:03:29.405Z,100057.46
2019-05-01T08:06:00.779Z,100052.44
2019-05-01T08:08:33.634Z,100045.01
2019-05-01T08:11:09.883Z,100038.81
2019-05-01T08:13:38.143Z,100035.73
2019-05-01T08:16:09.576Z,100031.16
2019-05-01T08:18:41.850Z,100026.06
2019-05-01T08:21:21.114Z,100022.64
2019-05-01T08:23:53.803Z,100014.05
2019-05-01T08:26:25.253Z,100007.59
2019-05-01T08:29:09.507Z,99999.38
2019-05-01T08:31:54.055Z,100003.61
2019-05-01T08:34:29.664Z,100003.91
2019-05-01T08:37:00.266Z,100006.13
2019-05-01T08:39:32.833Z,99999.36
2019-05-01T08:42:06.991Z,100010.28
2019-05-01T08:44:59.968Z,100011.13
2019-05-01T08:47:34.247Z,100019.19
2019-05-01T08:50:14.437Z,100011.08
2019-05-01T08:52:47.359Z,100007.31
2019-05-01T08:55:20.036Z,100005.73
2019-05-01T09:05:27.638Z,100003.77
2019-05-01T09:07:46.817Z,100001.02
2019-05-01T09:17:14.493Z,99987.05
2019-05-01T09:23:39.780Z,99992.00
2019-05-01T09:33:04.686Z,99971.13
2019-05-01T09:35:40.439Z,99959.38
2019-05-01T09:38:13.266Z,99956.12
2019-05-01T09:40:48.779Z,99954.59
2019-05-01T09:43:26.031Z,99951.10
2019-05-01T09:45:59.092Z,99954.20
2019-05-01T09:48:32.132Z,99948.57
2019-05-01T09:51:05.465Z,99946.96
2019-05-01T09:53:41.059Z,99947.30
2019-05-01T09:56:14.102Z,99954.77
2019-05-01T09:58:45.439Z,99946.73
2019-05-01T10:01:16.829Z,99939.29
2019-05-01T10:03:49.454Z,99933.00
2019-05-01T10:06:21.397Z,99939.70
2019-05-01T10:08:52.797Z,99935.70
2019-05-01T10:11:24.243Z,99928.61
2019-05-01T10:13:58.542Z,99919.11
2019-05-01T10:16:27.868Z,99910.69
2019-05-01T10:18:58.706Z,99921.92
2019-05-01T10:21:29.823Z,99916.75
2019-05-01T10:24:01.333Z,99908.72
2019-05-01T10:26:33.677Z,99914.06
2019-05-01T10:29:09.105Z,99907.98
2019-05-01T10:32:00.261Z,99904.98
2019-05-01T10:34:33.199Z,99903.34
2019-05-01T10:37:04.612Z,99907.75
2019-05-01T10:39:37.611Z,99909.16
2019-05-01T10:42:09.012Z,99905.00
2019-05-01T10:44:39.755Z,99903.38
2019-05-01T10:47:10.866Z,99902.22
2019-05-01T10:49:41.703Z,99895.41
2019-05-01T10:52:14.269Z,99903.40
2019-05-01T10:54:49.446Z,99898.31
2019-05-01T10:57:22.545Z,99895.86
2019-05-01T10:59:54.023Z,99894.52
2019-05-01T11:02:24.827Z,99896.47
2019-05-01T11:04:55.930Z,99887.34
2019-05-01T11:07:27.346Z,99892.39
2019-05-01T11:09:58.123Z,99882.19
2019-05-01T11:12:29.226Z,99882.73
2019-05-01T11:15:00.660Z,99876.62
2019-05-01T11:17:33.153Z,99873.63
2019-05-01T11:20:06.677Z,99869.17
2019-05-01T11:22:38.226Z,99866.45
2019-05-01T11:25:09.145Z,99862.07
2019-05-01T11:27:40.194Z,99861.73
2019-05-01T11:30:11.574Z,99855.96
2019-05-01T11:32:43.997Z,99847.45
2019-05-01T11:35:32.895Z,99852.42
2019-05-01T11:38:23.095Z,99850.80
2019-05-01T11:40:55.975Z,99845.60
2019-05-01T11:43:27.268Z,99843.98
2019-05-01T11:45:58.567Z,99849.20
2019-05-01T11:48:31.746Z,99838.12
2019-05-01T11:51:03.126Z,99836.47
2019-05-01T11:53:34.528Z,99832.59
2019-05-01T11:56:05.266Z,99828.22
2019-05-01T11:58:36.361Z,99825.16
2019-05-01T12:01:10.995Z,99829.38
2019-05-01T12:03:42.626Z,99821.41
2019-05-01T12:06:22.741Z,99827.48
2019-05-01T12:08:47.477Z,99809.80
2019-05-01T12:11:19.782Z,99811.97
2019-05-01T12:13:50.959Z,99814.16
2019-05-01T12:16:23.830Z,99805.89
2019-05-01T12:18:55.248Z,99806.51
2019-05-01T12:21:26.079Z,99797.66
2019-05-01T12:23:57.149Z,99789.91
2019-05-01T12:26:29.401Z,99790.48
2019-05-01T12:29:00.702Z,99777.48
2019-05-01T12:31:31.874Z,99768.59
2019-05-01T12:34:03.255Z,99774.43
2019-05-01T12:36:36.348Z,99769.98
2019-05-01T12:39:10.757Z,99770.55
2019-05-01T12:41:47.600Z,99756.95
2019-05-01T12:44:21.492Z,99756.70
2019-05-01T12:46:54.414Z,99752.80
2019-05-01T12:49:25.592Z,99751.96
2019-05-01T12:52:09.856Z,99742.27
2019-05-01T12:54:33.061Z,99735.35
2019-05-01T12:57:04.423Z,99737.33
2019-05-01T12:59:35.657Z,99722.89
2019-05-01T13:02:07.116Z,99711.81
2019-05-01T13:04:38.411Z,99711.31
2019-05-01T13:07:09.136Z,99716.86
2019-05-01T13:09:40.212Z,99709.38
2019-05-01T13:12:11.046Z,99701.89
2019-05-01T13:14:42.169Z,99685.52
2019-05-01T13:17:13.696Z,99692.17
2019-05-01T13:19:45.027Z,99686.88
2019-05-01T13:22:16.365Z,99679.69
2019-05-01T13:24:50.028Z,99675.78
2019-05-01T13:27:22.815Z,99670.00
2019-05-01T13:29:56.018Z,99681.64
2019-05-01T13:32:28.812Z,99688.87
2019-05-01T13:35:00.181Z,99696.06
2019-05-01T13:37:31.351Z,99687.72
2019-05-01T13:40:02.631Z,99690.48
2019-05-01T13:42:33.916Z,99686.31
2019-05-01T13:45:07.314Z,99684.66
2019-05-01T13:47:38.778Z,99676.58
2019-05-01T13:50:12.434Z,99681.87
2019-05-01T13:52:43.938Z,99671.89
2019-05-01T13:55:16.143Z,99671.58
2019-05-01T13:57:48.523Z,99670.47
2019-05-01T14:00:19.948Z,99662.70
2019-05-01T14:02:51.443Z,99664.64
2019-05-01T14:05:23.149Z,99663.84
2019-05-01T14:07:54.226Z,99662.73
2019-05-01T14:10:25.439Z,99658.37
2019-05-01T14:12:56.078Z,99659.77
2019-05-01T14:15:28.752Z,99669.73
2019-05-01T14:17:59.985Z,99670.83
2019-05-01T14:20:50.955Z,99669.70
2019-05-01T14:23:23.869Z,99671.08
2019-05-01T14:26:08.431Z,99668.30
2019-05-01T14:28:39.650Z,99665.26
2019-05-01T14:31:11.020Z,99664.95
2019-05-01T14:33:41.760Z,99661.05
2019-05-01T14:36:12.888Z,99667.95
2019-05-01T14:38:44.169Z,99661.03
2019-05-01T14:41:15.456Z,99662.16
2019-05-01T14:43:46.763Z,99657.45
2019-05-01T14:46:17.990Z,99660.47
2019-05-01T14:48:49.395Z,99659.92
2019-05-01T14:51:21.760Z,99660.45
2019-05-01T14:53:54.432Z,99652.43
2019-05-01T14:56:28.440Z,99650.77
2019-05-01T14:58:59.323Z,99647.43
2019-05-01T15:01:31.026Z,99651.23
2019-05-01T15:04:04.842Z,99648.77
2019-05-01T15:06:35.424Z,99644.62
2019-05-01T15:09:08.907Z,99652.36
2019-05-01T15:11:44.548Z,99643.56
2019-05-01T15:14:33.852Z,99636.91
2019-05-01T15:17:12.548Z,99631.12
2019-05-01T15:19:45.674Z,99627.23
2019-05-01T15:22:17.082Z,99626.14
2019-05-01T15:24:47.810Z,99625.03
2019-05-01T15:27:18.912Z,99623.06
2019-05-01T15:29:51.248Z,99623.92
2019-05-01T15:32:22.166Z,99614.56
2019-05-01T15:34:53.332Z,99609.88
2019-05-01T15:37:24.787Z,99606.52
2019-05-01T15:39:56.990Z,99601.84
2019-05-01T15:42:36.052Z,99605.42
2019-05-01T15:45:07.450Z,99601.56
2019-05-01T15:47:38.762Z,99598.50
2019-05-01T15:50:09.997Z,99589.06
2019-05-01T15:52:41.347Z,99591.80
2019-05-01T15:55:13.217Z,99592.02
2019-05-01T15:57:44.576Z,99597.55
2019-05-01T16:00:17.439Z,99604.98
2019-05-01T16:02:48.791Z,99606.06
2019-05-01T16:05:19.963Z,99609.39
2019-05-01T16:07:52.376Z,99610.44
2019-05-01T16:10:25.303Z,99612.34
2019-05-01T16:12:58.159Z,99606.02
2019-05-01T16:15:33.577Z,99602.40
2019-05-01T16:18:06.207Z,99604.84
2019-05-01T16:20:37.377Z,99598.42
2019-05-01T16:23:09.339Z,99593.72
2019-05-01T16:25:40.808Z,99594.25
2019-05-01T16:28:12.173Z,99595.52
2019-05-01T16:30:43.459Z,99589.40
2019-05-01T16:33:15.743Z,99584.68
2019-05-01T16:35:47.033Z,99587.72
2019-05-01T16:38:23.471Z,99586.08
2019-05-01T16:40:57.579Z,99584.89
2019-05-01T16:43:28.922Z,99577.95
2019-05-01T16:46:00.218Z,99577.61
2019-05-01T16:48:31.571Z,99578.64
2019-05-01T16:51:02.832Z,99584.66
2019-05-01T16:53:34.243Z,99578.82
2019-05-01T16:56:05.668Z,99577.88
2019-05-01T16:58:37.010Z,99583.28
2019-05-01T17:01:09.317Z,99580.08
2019-05-01T17:03:57.172Z,99576.26
2019-05-01T17:06:35.603Z,99575.85
2019-05-01T17:09:26.137Z,99573.55
2019-05-01T17:11:59.005Z,99576.34
2019-05-01T17:14:30.814Z,99576.73
2019-05-01T17:17:02.323Z,99579.39
2019-05-01T17:19:32.943Z,99580.95
2019-05-01T17:22:09.296Z,99587.55
2019-05-01T17:24:38.558Z,99592.97
2019-05-01T17:27:09.849Z,99597.44
2019-05-01T17:29:41.133Z,99587.01
2019-05-01T17:32:13.874Z,99608.16
2019-05-01T17:34:45.172Z,99608.27
2019-05-01T17:37:16.509Z,99607.28
2019-05-01T17:39:48.083Z,99604.78
2019-05-01T17:42:19.296Z,99610.11
2019-05-01T17:44:50.661Z,99611.24
2019-05-01T17:47:22.432Z,99622.02
2019-05-01T17:49:54.882Z,99617.88
2019-05-01T17:52:26.115Z,99610.38
2019-05-01T17:54:57.269Z,99613.73
2019-05-01T17:57:28.539Z,99613.71
2019-05-01T18:00:01.261Z,99609.77
2019-05-01T18:02:37.213Z,99620.55
2019-05-01T18:05:10.132Z,99626.56
2019-05-01T18:07:41.372Z,99626.59
2019-05-01T18:10:12.615Z,99635.37
2019-05-01T18:12:43.846Z,99638.64
2019-05-01T18:15:15.112Z,99640.86
2019-05-01T18:17:46.362Z,99641.08
2019-05-01T18:20:17.591Z,99638.50
2019-05-01T18:22:57.727Z,99642.09
2019-05-01T18:25:34.917Z,99639.25
2019-05-01T18:28:13.817Z,99628.97
2019-05-01T18:30:45.560Z,99634.45
2019-05-01T18:33:16.802Z,99642.05
2019-05-01T18:35:49.238Z,99641.75
2019-05-01T18:38:34.160Z,99639.53
2019-05-01T18:41:09.979Z,99637.38
2019-05-01T18:43:41.271Z,99637.82
2019-05-01T18:46:12.654Z,99631.91
2019-05-01T18:48:44.107Z,99631.57
2019-05-01T18:51:16.547Z,99633.79
2019-05-01T18:53:50.585Z,99635.90
2019-05-01T18:56:21.806Z,99629.02
2019-05-01T18:58:53.094Z,99630.90
2019-05-01T19:01:24.318Z,99638.48
2019-05-01T19:03:56.315Z,99634.31
2019-05-01T19:06:40.143Z,99638.98
2019-05-01T19:09:13.980Z,99641.93
2019-05-01T19:11:37.474Z,99636.38
2019-05-01T19:14:09.419Z,99641.59
2019-05-01T19:16:45.401Z,99643.23
2019-05-01T19:19:13.643Z,99638.76
2019-05-01T19:21:46.533Z,99649.70
2019-05-01T19:24:17.801Z,99642.39
2019-05-01T19:26:49.063Z,99653.17
2019-05-01T19:29:21.419Z,99645.41
2019-05-01T19:31:53.494Z,99641.50
2019-05-01T19:34:26.284Z,99651.64
2019-05-01T19:36:59.219Z,99641.08
2019-05-01T19:39:42.987Z,99642.23
2019-05-01T19:42:03.491Z,99649.52
2019-05-01T19:44:34.831Z,99654.72
2019-05-01T19:47:07.808Z,99652.59
2019-05-01T19:49:39.045Z,99648.12
2019-05-01T19:52:10.324Z,99650.60
2019-05-01T19:54:41.609Z,99650.43
2019-05-01T19:57:12.788Z,99646.43
2019-05-01T19:59:44.134Z,99648.88
2019-05-01T20:02:20.173Z,99643.19
2019-05-01T20:04:50.415Z,99639.34
2019-05-01T20:07:22.772Z,99636.00
2019-05-01T20:09:56.975Z,99634.46
2019-05-01T20:12:29.676Z,99631.48
2019-05-01T20:15:00.157Z,99626.82
2019-05-01T20:17:31.557Z,99617.55
2019-05-01T20:20:02.763Z,99620.16
2019-05-01T20:22:34.490Z,99615.47
2019-05-01T20:25:06.173Z,99614.75
2019-05-01T20:27:39.536Z,99604.73
2019-05-01T20:30:10.546Z,99608.02
2019-05-01T20:32:41.796Z,99608.59
2019-05-01T20:35:13.006Z,99604.37
2019-05-01T20:37:44.305Z,99607.64
2019-05-01T20:40:15.508Z,99607.64
2019-05-01T20:42:46.924Z,99607.69
2019-05-01T20:45:19.681Z,99597.18
2019-05-01T20:47:54.147Z,99596.73
2019-05-01T20:50:23.941Z,99596.55
2019-05-01T20:52:55.258Z,99584.41
2019-05-01T20:55:26.428Z,99579.39
2019-05-01T20:58:17.266Z,99587.41
2019-05-01T21:00:53.590Z,99579.16
2019-05-01T21:03:24.614Z,99574.27
2019-05-01T21:06:12.695Z,99576.81
2019-05-01T21:08:48.237Z,99580.14
2019-05-01T21:11:24.168Z,99562.48
2019-05-01T21:14:14.771Z,99559.64
2019-05-01T21:16:32.958Z,99558.55
2019-05-01T21:19:03.689Z,99558.31
2019-05-01T21:21:35.547Z,99554.94
2019-05-01T21:24:06.837Z,99555.86
2019-05-01T21:26:38.531Z,99553.28
2019-05-01T21:29:09.789Z,99551.59
2019-05-01T21:31:41.048Z,99551.91
2019-05-01T21:34:14.362Z,99551.34
2019-05-01T21:36:47.472Z,99551.02
2019-05-01T21:39:22.160Z,99549.33
2019-05-01T21:41:53.368Z,99549.92
2019-05-01T21:44:24.779Z,99548.45
2019-05-01T21:46:56.039Z,99544.42
2019-05-01T21:49:28.871Z,99540.61
2019-05-01T21:52:00.165Z,99538.44
2019-05-01T21:54:31.633Z,99535.69
2019-05-01T21:57:02.881Z,99538.12
2019-05-01T21:59:35.303Z,99534.38
2019-05-01T22:02:10.127Z,99520.24
2019-05-01T22:04:39.587Z,99516.55
2019-05-01T22:07:11.042Z,99511.96
2019-05-01T22:09:45.773Z,99522.64
2019-05-01T22:12:15.311Z,99522.05
2019-05-01T22:14:50.976Z,99522.83
2019-05-01T22:17:33.493Z,99514.37
2019-05-01T22:20:06.320Z,99505.77
2019-05-01T22:22:43.910Z,99506.89
2019-05-01T22:25:13.562Z,99504.93
2019-05-01T22:27:46.390Z,99507.72
2019-05-01T22:30:28.129Z,99508.20
2019-05-01T22:32:59.944Z,99500.60
2019-05-01T22:35:32.564Z,99510.10
2019-05-01T22:38:05.294Z,99501.34
2019-05-01T22:40:50.371Z,99498.95
2019-05-01T22:43:21.702Z,99495.11
2019-05-01T22:45:56.186Z,99487.97
2019-05-01T22:48:25.837Z,99488.73
2019-05-01T22:50:58.625Z,99482.86
2019-05-01T22:53:30.835Z,99491.20
2019-05-01T22:56:03.909Z,99484.03
2019-05-01T22:58:35.013Z,99491.98
2019-05-01T23:01:07.272Z,99482.37
2019-05-01T23:03:52.024Z,99482.55
2019-05-01T23:06:23.268Z,99484.91
2019-05-01T23:08:54.527Z,99477.43
2019-05-01T23:11:27.361Z,99477.84
2019-05-01T23:13:58.563Z,99472.63
2019-05-01T23:16:31.424Z,99465.96
2019-05-01T23:19:02.675Z,99475.09
2019-05-01T23:21:33.986Z,99463.39
2019-05-01T23:24:06.095Z,99460.95
2019-05-01T23:26:37.355Z,99462.74
2019-05-01T23:29:08.570Z,99456.47
2019-05-01T23:31:39.871Z,99456.98
2019-05-01T23:34:11.174Z,99466.11
2019-05-01T23:36:42.450Z,99459.45
2019-05-01T23:39:14.789Z,99461.30
2019-05-01T23:41:47.113Z,99458.38
2019-05-01T23:44:18.531Z,99454.02
2019-05-01T23:46:49.805Z,99455.80
2019-05-01T23:49:21.053Z,99446.83
2019-05-01T23:51:52.246Z,99455.47
2019-05-01T23:54:24.576Z,99443.97
2019-05-01T23:56:55.851Z,99440.48
2019-05-01T23:59:27.076Z,99447.41
